sensor_id;sensor_type;location;lat;lon;timestamp;pressure;altitude;pressure_sealevel;temperature;humidity
65553;BME280;72126;51.560;14.368;2024-03-25T00:02:12;98598.53;;;11.19;63.12
65553;BME280;72126;51.560;14.368;2024-03-25T00:04:37;98609.03;;;11.19;62.90
65553;BME280;72126;51.560;14.368;2024-03-25T00:07:02;98600.16;;;11.20;62.89
65553;BME280;72126;51.560;14.368;2024-03-25T00:09:28;98602.19;;;11.18;63.04
65553;BME280;72126;51.560;14.368;2024-03-25T00:11:53;98615.28;;;11.18;63.03
65553;BME280;72126;51.560;14.368;2024-03-25T00:14:18;98601.38;;;11.18;62.98
65553;BME280;72126;51.560;14.368;2024-03-25T00:16:43;98613.66;;;11.17;62.75
65553;BME280;72126;51.560;14.368;2024-03-25T00:19:08;98605.97;;;11.16;63.09
65553;BME280;72126;51.560;14.368;2024-03-25T00:21:34;98604.97;;;11.17;63.07
65553;BME280;72126;51.560;14.368;2024-03-25T00:23:59;98620.69;;;11.17;63.32
65553;BME280;72126;51.560;14.368;2024-03-25T00:26:24;98609.22;;;11.18;63.12
65553;BME280;72126;51.560;14.368;2024-03-25T00:28:49;98614.66;;;11.16;62.93
65553;BME280;72126;51.560;14.368;2024-03-25T00:31:14;98612.03;;;11.16;63.05
65553;BME280;72126;51.560;14.368;2024-03-25T00:33:40;98609.41;;;11.16;63.09
65553;BME280;72126;51.560;14.368;2024-03-25T00:36:05;98609.03;;;11.12;63.10
65553;BME280;72126;51.560;14.368;2024-03-25T00:38:30;98613.03;;;11.15;63.01
65553;BME280;72126;51.560;14.368;2024-03-25T00:40:55;98601.75;;;11.15;63.00
65553;BME280;72126;51.560;14.368;2024-03-25T00:43:21;98607.00;;;11.15;62.99
65553;BME280;72126;51.560;14.368;2024-03-25T00:45:46;98606.19;;;11.14;63.00
65553;BME280;72126;51.560;14.368;2024-03-25T00:48:11;98605.38;;;11.13;63.07
65553;BME280;72126;51.560;14.368;2024-03-25T00:50:36;98600.97;;;11.14;62.95
65553;BME280;72126;51.560;14.368;2024-03-25T00:53:01;98604.59;;;11.13;63.18
65553;BME280;72126;51.560;14.368;2024-03-25T00:55:27;98598.53;;;11.12;62.96
65553;BME280;72126;51.560;14.368;2024-03-25T00:57:52;98600.38;;;11.12;63.06
65553;BME280;72126;51.560;14.368;2024-03-25T01:00:17;98610.84;;;11.12;63.05
65553;BME280;72126;51.560;14.368;2024-03-25T01:02:43;98604.78;;;11.11;63.02
65553;BME280;72126;51.560;14.368;2024-03-25T01:05:08;98613.47;;;11.12;62.65
65553;BME280;72126;51.560;14.368;2024-03-25T01:07:33;98610.03;;;11.11;63.09
65553;BME280;72126;51.560;14.368;2024-03-25T01:09:59;98608.41;;;11.10;63.14
65553;BME280;72126;51.560;14.368;2024-03-25T01:12:24;98600.53;;;11.10;63.05
65553;BME280;72126;51.560;14.368;2024-03-25T01:14:50;98602.34;;;11.10;62.95
65553;BME280;72126;51.560;14.368;2024-03-25T01:17:15;98607.59;;;11.10;62.89
65553;BME280;72126;51.560;14.368;2024-03-25T01:19:40;98602.34;;;11.10;63.14
65553;BME280;72126;51.560;14.368;2024-03-25T01:22:05;98598.94;;;11.09;63.12
65553;BME280;72126;51.560;14.368;2024-03-25T01:24:30;98605.97;;;11.09;62.99
65553;BME280;72126;51.560;14.368;2024-03-25T01:26:56;98599.13;;;11.08;63.19
65553;BME280;72126;51.560;14.368;2024-03-25T01:29:21;98607.81;;;11.08;63.15
65553;BME280;72126;51.560;14.368;2024-03-25T01:31:46;98605.19;;;11.08;63.08
65553;BME280;72126;51.560;14.368;2024-03-25T01:34:11;98609.63;;;11.08;63.13
65553;BME280;72126;51.560;14.368;2024-03-25T01:36:36;98613.03;;;11.08;63.01
65553;BME280;72126;51.560;14.368;2024-03-25T01:39:02;98607.00;;;11.08;63.00
65553;BME280;72126;51.560;14.368;2024-03-25T01:41:28;98611.63;;;11.06;63.01
65553;BME280;72126;51.560;14.368;2024-03-25T01:43:53;98615.88;;;11.07;63.15
65553;BME280;72126;51.560;14.368;2024-03-25T01:46:18;98610.63;;;11.07;63.25
65553;BME280;72126;51.560;14.368;2024-03-25T01:48:44;98610.63;;;11.07;63.21
65553;BME280;72126;51.560;14.368;2024-03-25T01:51:11;98616.88;;;11.06;63.27
65553;BME280;72126;51.560;14.368;2024-03-25T01:53:38;98624.72;;;11.06;63.38
65553;BME280;72126;51.560;14.368;2024-03-25T01:56:04;98616.03;;;11.05;63.02
65553;BME280;72126;51.560;14.368;2024-03-25T01:58:29;98623.91;;;11.05;63.44
65553;BME280;72126;51.560;14.368;2024-03-25T02:00:55;98624.72;;;11.06;63.18
65553;BME280;72126;51.560;14.368;2024-03-25T02:03:20;98625.72;;;11.05;63.24
65553;BME280;72126;51.560;14.368;2024-03-25T02:05:49;98633.56;;;11.05;63.02
65553;BME280;72126;51.560;14.368;2024-03-25T02:08:15;98630.94;;;11.05;63.20
65553;BME280;72126;51.560;14.368;2024-03-25T02:10:42;98638.81;;;11.05;63.20
65553;BME280;72126;51.560;14.368;2024-03-25T02:13:07;98633.78;;;11.03;63.18
65553;BME280;72126;51.560;14.368;2024-03-25T02:15:33;98635.59;;;11.03;63.13
65553;BME280;72126;51.560;14.368;2024-03-25T02:17:58;98633.78;;;11.03;63.45
65553;BME280;72126;51.560;14.368;2024-03-25T02:20:23;98635.59;;;11.03;63.14
65553;BME280;72126;51.560;14.368;2024-03-25T02:22:49;98638.22;;;11.03;62.87
65553;BME280;72126;51.560;14.368;2024-03-25T02:25:16;98646.06;;;11.03;63.17
65553;BME280;72126;51.560;14.368;2024-03-25T02:27:41;98646.44;;;11.00;63.18
65553;BME280;72126;51.560;14.368;2024-03-25T02:30:08;98644.47;;;11.02;63.14
65553;BME280;72126;51.560;14.368;2024-03-25T02:32:35;98643.84;;;11.00;63.11
65553;BME280;72126;51.560;14.368;2024-03-25T02:35:02;98648.91;;;11.01;63.19
65553;BME280;72126;51.560;14.368;2024-03-25T02:37:29;98657.94;;;10.99;63.33
65553;BME280;72126;51.560;14.368;2024-03-25T02:39:57;98664.78;;;11.00;63.48
65553;BME280;72126;51.560;14.368;2024-03-25T02:42:24;98659.53;;;11.00;63.17
65553;BME280;72126;51.560;14.368;2024-03-25T02:44:49;98661.34;;;10.99;63.36
65553;BME280;72126;51.560;14.368;2024-03-25T02:47:15;98670.00;;;11.00;63.31
65553;BME280;72126;51.560;14.368;2024-03-25T02:49:40;98677.06;;;10.99;62.85
65553;BME280;72126;51.560;14.368;2024-03-25T02:52:05;98680.69;;;10.98;63.34
65553;BME280;72126;51.560;14.368;2024-03-25T02:54:30;98681.50;;;10.99;63.22
65553;BME280;72126;51.560;14.368;2024-03-25T02:56:56;98680.91;;;10.97;63.28
65553;BME280;72126;51.560;14.368;2024-03-25T02:59:21;98688.56;;;10.98;63.18
65553;BME280;72126;51.560;14.368;2024-03-25T03:01:46;98694.59;;;10.99;63.15
65553;BME280;72126;51.560;14.368;2024-03-25T03:04:12;98694.00;;;10.97;63.08
65553;BME280;72126;51.560;14.368;2024-03-25T03:06:37;98704.47;;;10.97;63.10
65553;BME280;72126;51.560;14.368;2024-03-25T03:09:02;98705.28;;;10.97;63.26
65553;BME280;72126;51.560;14.368;2024-03-25T03:11:27;98701.03;;;10.96;63.45
65553;BME280;72126;51.560;14.368;2024-03-25T03:13:52;98708.09;;;10.96;63.47
65553;BME280;72126;51.560;14.368;2024-03-25T03:16:17;98711.72;;;10.95;63.15
65553;BME280;72126;51.560;14.368;2024-03-25T03:18:43;98718.56;;;10.96;63.11
65553;BME280;72126;51.560;14.368;2024-03-25T03:21:08;98717.75;;;10.95;63.22
65553;BME280;72126;51.560;14.368;2024-03-25T03:23:34;98718.56;;;10.96;63.10
65553;BME280;72126;51.560;14.368;2024-03-25T03:26:00;98722.19;;;10.95;63.22
65553;BME280;72126;51.560;14.368;2024-03-25T03:28:25;98725.78;;;10.94;63.31
65553;BME280;72126;51.560;14.368;2024-03-25T03:30:50;98722.19;;;10.95;63.29
65553;BME280;72126;51.560;14.368;2024-03-25T03:33:16;98726.59;;;10.94;63.16
65553;BME280;72126;51.560;14.368;2024-03-25T03:35:42;98727.00;;;10.91;63.14
65553;BME280;72126;51.560;14.368;2024-03-25T03:38:07;98729.41;;;10.93;63.30
65553;BME280;72126;51.560;14.368;2024-03-25T03:40:33;98737.28;;;10.93;63.17
65553;BME280;72126;51.560;14.368;2024-03-25T03:42:58;98739.91;;;10.93;63.06
65553;BME280;72126;51.560;14.368;2024-03-25T03:45:24;98745.94;;;10.93;63.26
65553;BME280;72126;51.560;14.368;2024-03-25T03:47:50;98745.13;;;10.93;63.16
65553;BME280;72126;51.560;14.368;2024-03-25T03:50:15;98743.53;;;10.92;63.22
65553;BME280;72126;51.560;14.368;2024-03-25T03:52:40;98747.75;;;10.93;63.21
65553;BME280;72126;51.560;14.368;2024-03-25T03:55:05;98752.19;;;10.92;63.27
65553;BME280;72126;51.560;14.368;2024-03-25T03:57:31;98750.78;;;10.90;63.43
65553;BME280;72126;51.560;14.368;2024-03-25T03:59:56;98760.25;;;10.91;62.95
65553;BME280;72126;51.560;14.368;2024-03-25T04:02:22;98752.38;;;10.91;63.28
65553;BME280;72126;51.560;14.368;2024-03-25T04:04:47;98752.38;;;10.91;63.25
65553;BME280;72126;51.560;14.368;2024-03-25T04:07:12;98758.63;;;10.90;63.38
65553;BME280;72126;51.560;14.368;2024-03-25T04:09:38;98756.00;;;10.90;63.34
65553;BME280;72126;51.560;14.368;2024-03-25T04:12:03;98769.09;;;10.90;63.21
65553;BME280;72126;51.560;14.368;2024-03-25T04:14:28;98769.09;;;10.90;63.27
65553;BME280;72126;51.560;14.368;2024-03-25T04:16:53;98772.69;;;10.89;63.16
65553;BME280;72126;51.560;14.368;2024-03-25T04:19:19;98782.19;;;10.90;63.41
65553;BME280;72126;51.560;14.368;2024-03-25T04:21:45;98782.38;;;10.88;63.35
65553;BME280;72126;51.560;14.368;2024-03-25T04:24:10;98786.63;;;10.89;63.16
65553;BME280;72126;51.560;14.368;2024-03-25T04:26:35;98791.03;;;10.89;63.26
65553;BME280;72126;51.560;14.368;2024-03-25T04:29:00;98797.28;;;10.88;62.98
65553;BME280;72126;51.560;14.368;2024-03-25T04:31:25;98798.88;;;10.89;63.37
65553;BME280;72126;51.560;14.368;2024-03-25T04:33:51;98802.50;;;10.88;63.11
65553;BME280;72126;51.560;14.368;2024-03-25T04:36:16;98802.50;;;10.88;63.17
65553;BME280;72126;51.560;14.368;2024-03-25T04:38:41;98805.13;;;10.88;63.27
65553;BME280;72126;51.560;14.368;2024-03-25T04:41:06;98806.13;;;10.86;63.25
65553;BME280;72126;51.560;14.368;2024-03-25T04:43:31;98806.13;;;10.86;63.45
65553;BME280;72126;51.560;14.368;2024-03-25T04:46:00;98814.78;;;10.87;63.15
65553;BME280;72126;51.560;14.368;2024-03-25T04:48:26;98812.38;;;10.85;63.28
65553;BME280;72126;51.560;14.368;2024-03-25T04:50:51;98825.47;;;10.85;63.42
65553;BME280;72126;51.560;14.368;2024-03-25T04:53:16;98825.47;;;10.85;63.16
65553;BME280;72126;51.560;14.368;2024-03-25T04:55:41;98822.03;;;10.85;63.28
65553;BME280;72126;51.560;14.368;2024-03-25T04:58:07;98832.50;;;10.85;63.26
65553;BME280;72126;51.560;14.368;2024-03-25T05:00:32;98843.78;;;10.85;63.16
65553;BME280;72126;51.560;14.368;2024-03-25T05:02:57;98845.81;;;10.83;63.19
65553;BME280;72126;51.560;14.368;2024-03-25T05:05:22;98847.41;;;10.84;63.31
65553;BME280;72126;51.560;14.368;2024-03-25T05:07:47;98846.59;;;10.84;63.41
65553;BME280;72126;51.560;14.368;2024-03-25T05:10:12;98853.66;;;10.83;63.32
65553;BME280;72126;51.560;14.368;2024-03-25T05:12:38;98855.44;;;10.83;63.32
65553;BME280;72126;51.560;14.368;2024-03-25T05:15:03;98859.88;;;10.82;63.11
65553;BME280;72126;51.560;14.368;2024-03-25T05:17:29;98858.06;;;10.83;63.27
65553;BME280;72126;51.560;14.368;2024-03-25T05:19:54;98857.25;;;10.82;63.42
65553;BME280;72126;51.560;14.368;2024-03-25T05:22:19;98868.53;;;10.83;63.19
65553;BME280;72126;51.560;14.368;2024-03-25T05:24:44;98869.53;;;10.82;63.12
65553;BME280;72126;51.560;14.368;2024-03-25T05:27:09;98870.34;;;10.82;63.35
65553;BME280;72126;51.560;14.368;2024-03-25T05:29:34;98876.59;;;10.81;63.25
65553;BME280;72126;51.560;14.368;2024-03-25T05:32:01;98876.59;;;10.81;63.41
65553;BME280;72126;51.560;14.368;2024-03-25T05:34:27;98883.63;;;10.81;63.35
65553;BME280;72126;51.560;14.368;2024-03-25T05:36:53;98892.28;;;10.81;63.18
65553;BME280;72126;51.560;14.368;2024-03-25T05:39:19;98884.44;;;10.81;63.25
65553;BME280;72126;51.560;14.368;2024-03-25T05:41:44;98895.91;;;10.80;63.39
65553;BME280;72126;51.560;14.368;2024-03-25T05:44:09;98898.53;;;10.80;63.29
65553;BME280;72126;51.560;14.368;2024-03-25T05:46:36;98905.56;;;10.80;63.28
65553;BME280;72126;51.560;14.368;2024-03-25T05:49:02;98903.75;;;10.80;63.28
65553;BME280;72126;51.560;14.368;2024-03-25T05:51:27;98905.56;;;10.80;63.39
65553;BME280;72126;51.560;14.368;2024-03-25T05:53:53;98909.00;;;10.80;63.18
65553;BME280;72126;51.560;14.368;2024-03-25T05:56:18;98909.19;;;10.79;63.33
65553;BME280;72126;51.560;14.368;2024-03-25T05:58:43;98917.06;;;10.79;63.40
65553;BME280;72126;51.560;14.368;2024-03-25T06:01:08;98933.56;;;10.79;63.27
65553;BME280;72126;51.560;14.368;2024-03-25T06:03:33;98924.09;;;10.78;63.34
65553;BME280;72126;51.560;14.368;2024-03-25T06:05:59;98929.34;;;10.78;63.38
65553;BME280;72126;51.560;14.368;2024-03-25T06:08:24;98937.19;;;10.78;63.23
65553;BME280;72126;51.560;14.368;2024-03-25T06:10:49;98935.53;;;10.77;63.40
65553;BME280;72126;51.560;14.368;2024-03-25T06:13:14;98939.81;;;10.78;63.32
65553;BME280;72126;51.560;14.368;2024-03-25T06:15:39;98939.81;;;10.78;63.39
65553;BME280;72126;51.560;14.368;2024-03-25T06:18:05;98946.84;;;10.78;63.32
65553;BME280;72126;51.560;14.368;2024-03-25T06:20:30;98941.63;;;10.78;63.13
65553;BME280;72126;51.560;14.368;2024-03-25T06:22:55;98944.41;;;10.76;63.19
65553;BME280;72126;51.560;14.368;2024-03-25T06:25:20;98956.50;;;10.77;63.32
65553;BME280;72126;51.560;14.368;2024-03-25T06:27:45;98961.72;;;10.77;63.21
65553;BME280;72126;51.560;14.368;2024-03-25T06:30:11;98954.88;;;10.76;63.15
65553;BME280;72126;51.560;14.368;2024-03-25T06:32:38;98971.59;;;10.75;63.42
65553;BME280;72126;51.560;14.368;2024-03-25T06:35:03;98969.78;;;10.76;63.27
65553;BME280;72126;51.560;14.368;2024-03-25T06:37:29;98986.28;;;10.76;63.12
65553;BME280;72126;51.560;14.368;2024-03-25T06:39:54;98989.91;;;10.75;63.42
65553;BME280;72126;51.560;14.368;2024-03-25T06:42:19;98986.47;;;10.75;63.50
65553;BME280;72126;51.560;14.368;2024-03-25T06:44:44;98989.09;;;10.75;63.27
65553;BME280;72126;51.560;14.368;2024-03-25T06:47:09;98988.91;;;10.76;63.40
65553;BME280;72126;51.560;14.368;2024-03-25T06:49:34;98996.75;;;10.76;63.43
65553;BME280;72126;51.560;14.368;2024-03-25T06:52:00;98997.75;;;10.75;63.28
65553;BME280;72126;51.560;14.368;2024-03-25T06:54:25;99008.22;;;10.75;63.34
65553;BME280;72126;51.560;14.368;2024-03-25T06:56:50;99006.41;;;10.76;63.23
65553;BME280;72126;51.560;14.368;2024-03-25T06:59:15;99013.47;;;10.75;63.09
65553;BME280;72126;51.560;14.368;2024-03-25T07:01:40;99016.47;;;10.72;63.42
65553;BME280;72126;51.560;14.368;2024-03-25T07:04:06;99022.31;;;10.74;63.28
65553;BME280;72126;51.560;14.368;2024-03-25T07:06:31;99022.31;;;10.74;63.26
65553;BME280;72126;51.560;14.368;2024-03-25T07:08:56;99030.19;;;10.74;63.08
65553;BME280;72126;51.560;14.368;2024-03-25T07:11:21;99034.41;;;10.75;63.26
65553;BME280;72126;51.560;14.368;2024-03-25T07:13:46;99034.59;;;10.74;63.33
65553;BME280;72126;51.560;14.368;2024-03-25T07:16:11;99038.03;;;10.74;63.19
65553;BME280;72126;51.560;14.368;2024-03-25T07:18:37;99042.47;;;10.74;63.35
65553;BME280;72126;51.560;14.368;2024-03-25T07:21:02;99042.47;;;10.74;63.27
65553;BME280;72126;51.560;14.368;2024-03-25T07:23:27;99036.56;;;10.72;63.29
65553;BME280;72126;51.560;14.368;2024-03-25T07:25:52;99050.31;;;10.74;63.41
65553;BME280;72126;51.560;14.368;2024-03-25T07:28:18;99049.50;;;10.73;63.20
65553;BME280;72126;51.560;14.368;2024-03-25T07:30:43;99062.41;;;10.75;63.25
65553;BME280;72126;51.560;14.368;2024-03-25T07:33:08;99063.41;;;10.74;63.40
65553;BME280;72126;51.560;14.368;2024-03-25T07:35:33;99062.59;;;10.73;63.36
65553;BME280;72126;51.560;14.368;2024-03-25T07:37:58;99059.16;;;10.73;63.29
65553;BME280;72126;51.560;14.368;2024-03-25T07:40:24;99069.63;;;10.73;63.43
65553;BME280;72126;51.560;14.368;2024-03-25T07:42:49;99079.28;;;10.72;63.37
65553;BME280;72126;51.560;14.368;2024-03-25T07:45:14;99071.44;;;10.72;63.36
65553;BME280;72126;51.560;14.368;2024-03-25T07:47:39;99071.44;;;10.72;63.28
65553;BME280;72126;51.560;14.368;2024-03-25T07:50:05;99084.53;;;10.72;63.47
65553;BME280;72126;51.560;14.368;2024-03-25T07:52:31;99077.50;;;10.73;63.27
65553;BME280;72126;51.560;14.368;2024-03-25T07:54:56;99083.69;;;10.72;63.37
65553;BME280;72126;51.560;14.368;2024-03-25T07:57:21;99089.78;;;10.72;63.22
65553;BME280;72126;51.560;14.368;2024-03-25T07:59:47;99089.78;;;10.72;63.02
65553;BME280;72126;51.560;14.368;2024-03-25T08:02:12;99084.69;;;10.71;63.29
65553;BME280;72126;51.560;14.368;2024-03-25T08:04:37;99095.00;;;10.72;63.39
65553;BME280;72126;51.560;14.368;2024-03-25T08:07:02;99091.53;;;10.72;63.42
65553;BME280;72126;51.560;14.368;2024-03-25T08:09:28;99095.97;;;10.71;63.13
65553;BME280;72126;51.560;14.368;2024-03-25T08:11:54;99107.25;;;10.72;63.32
65553;BME280;72126;51.560;14.368;2024-03-25T08:14:19;99099.19;;;10.67;63.34
65553;BME280;72126;51.560;14.368;2024-03-25T08:16:44;99104.63;;;10.72;63.29
65553;BME280;72126;51.560;14.368;2024-03-25T08:19:09;99104.63;;;10.72;63.22
65553;BME280;72126;51.560;14.368;2024-03-25T08:21:35;99117.72;;;10.72;63.25
65553;BME280;72126;51.560;14.368;2024-03-25T08:24:00;99117.72;;;10.72;63.18
65553;BME280;72126;51.560;14.368;2024-03-25T08:26:25;99114.31;;;10.71;63.33
65553;BME280;72126;51.560;14.368;2024-03-25T08:28:50;99110.06;;;10.70;63.48
65553;BME280;72126;51.560;14.368;2024-03-25T08:31:15;99107.25;;;10.72;63.20
65553;BME280;72126;51.560;14.368;2024-03-25T08:33:41;99122.97;;;10.72;63.44
65553;BME280;72126;51.560;14.368;2024-03-25T08:36:06;99125.56;;;10.72;63.37
65553;BME280;72126;51.560;14.368;2024-03-25T08:38:31;99135.88;;;10.73;63.25
65553;BME280;72126;51.560;14.368;2024-03-25T08:40:56;99124.78;;;10.71;63.29
65553;BME280;72126;51.560;14.368;2024-03-25T08:43:21;99123.81;;;10.72;63.17
65553;BME280;72126;51.560;14.368;2024-03-25T08:45:47;99130.81;;;10.72;63.40
65553;BME280;72126;51.560;14.368;2024-03-25T08:48:12;99142.94;;;10.73;63.36
65553;BME280;72126;51.560;14.368;2024-03-25T08:50:37;99147.34;;;10.72;63.12
65553;BME280;72126;51.560;14.368;2024-03-25T08:53:03;99144.91;;;10.71;63.19
65553;BME280;72126;51.560;14.368;2024-03-25T08:55:28;99140.31;;;10.73;63.10
65553;BME280;72126;51.560;14.368;2024-03-25T08:57:54;99143.09;;;10.71;63.65
65553;BME280;72126;51.560;14.368;2024-03-25T09:00:19;99150.94;;;10.71;63.22
65553;BME280;72126;51.560;14.368;2024-03-25T09:02:44;99152.59;;;10.72;63.29
65553;BME280;72126;51.560;14.368;2024-03-25T09:05:10;99154.22;;;10.73;63.33
65553;BME280;72126;51.560;14.368;2024-03-25T09:07:35;99150.94;;;10.71;63.39
65553;BME280;72126;51.560;14.368;2024-03-25T09:10:00;99156.03;;;10.73;63.34
65553;BME280;72126;51.560;14.368;2024-03-25T09:12:25;99149.13;;;10.72;63.28
65553;BME280;72126;51.560;14.368;2024-03-25T09:14:51;99163.88;;;10.73;63.18
65553;BME280;72126;51.560;14.368;2024-03-25T09:17:16;99164.69;;;10.73;63.45
65553;BME280;72126;51.560;14.368;2024-03-25T09:19:41;99164.69;;;10.73;63.26
65553;BME280;72126;51.560;14.368;2024-03-25T09:22:06;99164.69;;;10.73;63.16
65553;BME280;72126;51.560;14.368;2024-03-25T09:24:31;99169.09;;;10.73;63.28
65553;BME280;72126;51.560;14.368;2024-03-25T09:26:57;99169.91;;;10.73;63.22
65553;BME280;72126;51.560;14.368;2024-03-25T09:29:22;99165.50;;;10.74;63.30
65553;BME280;72126;51.560;14.368;2024-03-25T09:31:47;99167.28;;;10.73;62.87
65553;BME280;72126;51.560;14.368;2024-03-25T09:34:12;99167.09;;;10.75;62.99
65553;BME280;72126;51.560;14.368;2024-03-25T09:36:37;99178.38;;;10.75;63.51
65553;BME280;72126;51.560;14.368;2024-03-25T09:39:02;99181.00;;;10.75;63.14
65553;BME280;72126;51.560;14.368;2024-03-25T09:41:28;99186.03;;;10.77;63.18
65553;BME280;72126;51.560;14.368;2024-03-25T09:43:56;99187.84;;;10.76;63.23
65553;BME280;72126;51.560;14.368;2024-03-25T09:46:22;99191.28;;;10.77;63.54
65553;BME280;72126;51.560;14.368;2024-03-25T09:48:48;99197.31;;;10.77;62.90
65553;BME280;72126;51.560;14.368;2024-03-25T09:51:13;99196.50;;;10.77;63.30
65553;BME280;72126;51.560;14.368;2024-03-25T09:53:39;99200.78;;;10.78;63.25
65553;BME280;72126;51.560;14.368;2024-03-25T09:56:04;99198.16;;;10.78;63.29
65553;BME280;72126;51.560;14.368;2024-03-25T09:58:31;99202.56;;;10.77;63.21
65553;BME280;72126;51.560;14.368;2024-03-25T10:00:56;99202.56;;;10.77;63.26
65553;BME280;72126;51.560;14.368;2024-03-25T10:03:22;99205.19;;;10.77;63.20
65553;BME280;72126;51.560;14.368;2024-03-25T10:05:47;99201.75;;;10.77;63.14
65553;BME280;72126;51.560;14.368;2024-03-25T10:08:12;99215.50;;;10.79;63.27
65553;BME280;72126;51.560;14.368;2024-03-25T10:10:37;99221.53;;;10.79;63.28
65553;BME280;72126;51.560;14.368;2024-03-25T10:13:06;99217.31;;;10.78;63.23
65553;BME280;72126;51.560;14.368;2024-03-25T10:15:32;99208.25;;;10.66;63.26
65553;BME280;72126;51.560;14.368;2024-03-25T10:17:58;99225.16;;;10.78;63.24
65553;BME280;72126;51.560;14.368;2024-03-25T10:20:23;99230.38;;;10.78;63.39
65553;BME280;72126;51.560;14.368;2024-03-25T10:22:48;99225.16;;;10.78;63.22
65553;BME280;72126;51.560;14.368;2024-03-25T10:25:27;99233.00;;;10.78;63.28
65553;BME280;72126;51.560;14.368;2024-03-25T10:27:57;99227.56;;;10.80;63.12
65553;BME280;72126;51.560;14.368;2024-03-25T10:30:22;99229.38;;;10.79;63.20
65553;BME280;72126;51.560;14.368;2024-03-25T10:33:01;99235.44;;;10.80;63.14
65553;BME280;72126;51.560;14.368;2024-03-25T10:35:27;99232.81;;;10.80;63.26
65553;BME280;72126;51.560;14.368;2024-03-25T10:37:58;99239.84;;;10.79;63.25
65553;BME280;72126;51.560;14.368;2024-03-25T10:40:27;99242.47;;;10.79;63.20
65553;BME280;72126;51.560;14.368;2024-03-25T10:42:58;99246.72;;;10.80;63.69
65553;BME280;72126;51.560;14.368;2024-03-25T10:45:25;99245.91;;;10.80;63.10
65553;BME280;72126;51.560;14.368;2024-03-25T10:47:51;99245.91;;;10.80;63.28
65553;BME280;72126;51.560;14.368;2024-03-25T10:50:21;99240.66;;;10.80;63.37
65553;BME280;72126;51.560;14.368;2024-03-25T10:52:51;99244.09;;;10.80;63.34
65553;BME280;72126;51.560;14.368;2024-03-25T10:55:19;99238.84;;;10.80;63.13
65553;BME280;72126;51.560;14.368;2024-03-25T10:57:45;99237.06;;;10.81;63.20
65553;BME280;72126;51.560;14.368;2024-03-25T11:00:12;99237.84;;;10.81;63.29
65553;BME280;72126;51.560;14.368;2024-03-25T11:02:38;99234.25;;;10.82;63.26
65553;BME280;72126;51.560;14.368;2024-03-25T11:05:04;99236.84;;;10.82;63.26
65553;BME280;72126;51.560;14.368;2024-03-25T11:07:32;99235.06;;;10.83;63.22
65553;BME280;72126;51.560;14.368;2024-03-25T11:10:07;99235.06;;;10.83;63.18
65553;BME280;72126;51.560;14.368;2024-03-25T11:12:35;99234.09;;;10.84;63.09
65553;BME280;72126;51.560;14.368;2024-03-25T11:15:04;99233.09;;;10.85;63.20
65553;BME280;72126;51.560;14.368;2024-03-25T11:17:30;99230.47;;;10.85;63.25
65553;BME280;72126;51.560;14.368;2024-03-25T11:20:09;99228.03;;;10.83;63.01
65553;BME280;72126;51.560;14.368;2024-03-25T11:22:35;99231.28;;;10.85;63.69
65553;BME280;72126;51.560;14.368;2024-03-25T11:25:06;99232.88;;;10.86;63.17
65553;BME280;72126;51.560;14.368;2024-03-25T11:27:32;99231.06;;;10.87;63.23
65553;BME280;72126;51.560;14.368;2024-03-25T11:29:57;99234.50;;;10.88;63.25
65553;BME280;72126;51.560;14.368;2024-03-25T11:32:26;99227.66;;;10.86;63.06
65553;BME280;72126;51.560;14.368;2024-03-25T11:34:52;99222.41;;;10.86;63.12
65553;BME280;72126;51.560;14.368;2024-03-25T11:37:17;99228.47;;;10.87;63.31
65553;BME280;72126;51.560;14.368;2024-03-25T11:39:42;99227.47;;;10.88;63.13
65553;BME280;72126;51.560;14.368;2024-03-25T11:42:08;99234.50;;;10.88;63.14
65553;BME280;72126;51.560;14.368;2024-03-25T11:44:37;99240.56;;;10.88;63.13
65553;BME280;72126;51.560;14.368;2024-03-25T11:47:03;99236.13;;;10.89;63.13
65553;BME280;72126;51.560;14.368;2024-03-25T11:49:29;99244.81;;;10.89;63.02
65553;BME280;72126;51.560;14.368;2024-03-25T11:51:54;99242.19;;;10.89;63.12
65553;BME280;72126;51.560;14.368;2024-03-25T11:54:19;99243.81;;;10.90;63.21
65553;BME280;72126;51.560;14.368;2024-03-25T11:56:44;99248.25;;;10.90;63.11
65553;BME280;72126;51.560;14.368;2024-03-25T11:59:10;99246.59;;;10.89;63.11
65553;BME280;72126;51.560;14.368;2024-03-25T12:01:35;99247.25;;;10.91;63.06
65553;BME280;72126;51.560;14.368;2024-03-25T12:04:15;99242.19;;;10.89;63.54
65553;BME280;72126;51.560;14.368;2024-03-25T12:06:41;99251.47;;;10.92;63.21
65553;BME280;72126;51.560;14.368;2024-03-25T12:09:06;99247.25;;;10.91;63.16
65553;BME280;72126;51.560;14.368;2024-03-25T12:11:31;99248.06;;;10.91;62.90
65553;BME280;72126;51.560;14.368;2024-03-25T12:13:58;99254.91;;;10.92;63.24
65553;BME280;72126;51.560;14.368;2024-03-25T12:16:24;99256.91;;;10.90;63.15
65553;BME280;72126;51.560;14.368;2024-03-25T12:18:49;99254.28;;;10.90;63.29
65553;BME280;72126;51.560;14.368;2024-03-25T12:21:15;99259.34;;;10.92;63.07
65553;BME280;72126;51.560;14.368;2024-03-25T12:23:42;99253.28;;;10.91;63.17
65553;BME280;72126;51.560;14.368;2024-03-25T12:26:07;99249.88;;;10.91;63.18
65553;BME280;72126;51.560;14.368;2024-03-25T12:28:33;99250.69;;;10.91;63.11
65553;BME280;72126;51.560;14.368;2024-03-25T12:30:58;99255.91;;;10.91;62.86
65553;BME280;72126;51.560;14.368;2024-03-25T12:33:24;99252.28;;;10.92;63.05
65553;BME280;72126;51.560;14.368;2024-03-25T12:35:50;99252.47;;;10.91;62.98
65553;BME280;72126;51.560;14.368;2024-03-25T12:38:25;99252.28;;;10.92;63.06
65553;BME280;72126;51.560;14.368;2024-03-25T12:40:51;99248.66;;;10.93;63.21
65553;BME280;72126;51.560;14.368;2024-03-25T12:43:17;99249.47;;;10.94;63.33